createdAt,value
2023-04-01T00:01:16.045Z,2.00
2023-04-01T00:03:44.958Z,1.38
2023-04-01T00:06:18.730Z,1.67
2023-04-01T00:08:47.317Z,1.60
2023-04-01T00:11:16.358Z,1.92
2023-04-01T00:13:44.675Z,1.95
2023-04-01T00:16:21.051Z,1.90
2023-04-01T00:18:51.823Z,2.10
2023-04-01T00:21:20.189Z,1.90
2023-04-01T00:23:48.347Z,2.28
2023-04-01T00:26:19.920Z,1.90
2023-04-01T00:28:48.926Z,2.08
2023-04-01T00:31:16.988Z,1.80
2023-04-01T00:33:44.909Z,2.00
2023-04-01T00:36:15.729Z,1.80
2023-04-01T00:38:44.268Z,2.15
2023-04-01T00:41:15.944Z,2.70
2023-04-01T00:43:45.869Z,2.45
2023-04-01T00:46:13.781Z,2.85
2023-04-01T00:48:49.236Z,3.50
2023-04-01T00:51:24.877Z,3.00
2023-04-01T00:53:56.673Z,3.55
2023-04-01T00:56:28.446Z,3.70
2023-04-01T00:59:01.300Z,3.47
2023-04-01T01:01:30.914Z,4.05
2023-04-01T01:03:59.170Z,3.85
2023-04-01T01:06:33.288Z,4.10
2023-04-01T01:09:09.592Z,4.80
2023-04-01T01:11:44.200Z,4.63
2023-04-01T01:14:36.571Z,4.30
2023-04-01T01:17:24.520Z,4.75
2023-04-01T01:20:02.397Z,5.07
2023-04-01T01:22:46.046Z,5.57
2023-04-01T01:25:45.591Z,5.22
2023-04-01T01:28:24.969Z,5.72
2023-04-01T01:31:01.949Z,5.80
2023-04-01T01:33:36.771Z,5.70
2023-04-01T01:36:10.419Z,5.55
2023-04-01T01:38:39.969Z,5.20
2023-04-01T01:41:10.903Z,5.90
2023-04-01T01:43:44.017Z,5.35
2023-04-01T01:46:17.756Z,5.47
2023-04-01T01:48:46.874Z,5.53
2023-04-01T01:51:15.488Z,4.93
2023-04-01T01:53:43.340Z,4.90
2023-04-01T01:56:16.652Z,4.80
2023-04-01T01:58:50.108Z,5.10
2023-04-01T02:01:33.014Z,5.35
2023-04-01T02:04:10.925Z,5.30
2023-04-01T02:06:43.056Z,5.50
2023-04-01T02:09:12.732Z,6.20
2023-04-01T02:12:00.285Z,6.88
2023-04-01T02:14:48.909Z,7.50
2023-04-01T02:17:22.962Z,8.13
2023-04-01T02:19:52.441Z,7.45
2023-04-01T02:22:30.307Z,7.97
2023-04-01T02:25:09.354Z,7.45
2023-04-01T02:27:38.165Z,8.20
2023-04-01T02:30:07.232Z,9.23
2023-04-01T02:32:38.756Z,8.52
2023-04-01T02:35:14.896Z,8.85
2023-04-01T02:37:44.386Z,9.50
2023-04-01T02:40:15.439Z,9.50
2023-04-01T02:42:43.408Z,8.77
2023-04-01T02:45:12.168Z,9.38
2023-04-01T02:47:40.110Z,8.35
2023-04-01T02:50:09.374Z,8.73
2023-04-01T02:52:37.927Z,9.15
2023-04-01T02:55:06.830Z,8.55
2023-04-01T02:57:34.728Z,8.45
2023-04-01T03:00:03.547Z,8.35
2023-04-01T03:02:31.492Z,9.45
2023-04-01T03:04:59.343Z,7.95
2023-04-01T03:07:27.132Z,9.18
2023-04-01T03:09:55.048Z,8.95
2023-04-01T03:12:23.000Z,10.90
2023-04-01T03:14:52.961Z,8.88
2023-04-01T03:17:21.039Z,9.38
2023-04-01T03:19:48.922Z,9.75
2023-04-01T03:22:17.014Z,8.25
2023-04-01T03:24:44.844Z,8.23
2023-04-01T03:27:13.900Z,8.88
2023-04-01T03:29:41.998Z,8.57
2023-04-01T03:32:10.733Z,8.75
2023-04-01T03:34:38.714Z,8.13
2023-04-01T03:37:07.010Z,8.98
2023-04-01T03:39:35.913Z,7.53
2023-04-01T03:42:03.948Z,8.27
2023-04-01T03:44:35.642Z,7.43
2023-04-01T03:47:03.559Z,6.32
2023-04-01T03:49:33.071Z,6.95
2023-04-01T03:52:01.268Z,6.80
2023-04-01T03:54:29.205Z,6.38
2023-04-01T03:56:58.970Z,6.13
2023-04-01T03:59:27.328Z,6.63
2023-04-01T04:01:55.568Z,6.35
2023-04-01T04:04:23.626Z,5.82
2023-04-01T04:06:52.174Z,6.82
2023-04-01T04:09:22.532Z,6.68
2023-04-01T04:11:50.853Z,6.40
2023-04-01T04:14:19.191Z,6.18
2023-04-01T04:16:48.424Z,6.00
2023-04-01T04:19:16.318Z,5.80
2023-04-01T04:21:45.254Z,5.75
2023-04-01T04:24:13.301Z,5.65
2023-04-01T04:27:08.668Z,5.32
2023-04-01T04:29:42.784Z,5.43
2023-04-01T04:32:11.185Z,5.53
2023-04-01T04:34:39.209Z,5.97
2023-04-01T04:37:07.195Z,6.28
2023-04-01T04:39:37.479Z,6.00
2023-04-01T04:42:06.340Z,5.72
2023-04-01T04:44:34.207Z,6.22
2023-04-01T04:47:03.045Z,6.15
2023-04-01T04:49:31.246Z,6.40
2023-04-01T04:51:59.205Z,6.05
2023-04-01T04:54:29.014Z,5.93
2023-04-01T04:56:59.762Z,6.32
2023-04-01T04:59:30.202Z,6.47
2023-04-01T05:02:04.161Z,6.97
2023-04-01T05:04:37.249Z,6.57
2023-04-01T05:09:35.803Z,6.57
2023-04-01T05:12:04.472Z,6.40
2023-04-01T05:14:49.297Z,6.45
2023-04-01T05:17:17.125Z,6.65
2023-04-01T05:19:44.998Z,6.43
2023-04-01T05:22:13.721Z,6.32
2023-04-01T05:24:45.364Z,6.47
2023-04-01T05:27:13.918Z,6.40
2023-04-01T05:29:43.464Z,6.72
2023-04-01T05:32:27.306Z,6.85
2023-04-01T05:34:55.775Z,6.13
2023-04-01T05:37:24.228Z,6.65
2023-04-01T05:39:52.094Z,6.68
2023-04-01T05:42:19.932Z,6.70
2023-04-01T05:44:48.255Z,6.60
2023-04-01T05:47:34.681Z,6.43
2023-04-01T05:50:05.500Z,7.10
2023-04-01T05:52:33.403Z,7.18
2023-04-01T05:55:01.394Z,7.22
2023-04-01T05:57:29.520Z,7.80
2023-04-01T05:59:57.512Z,8.05
2023-04-01T06:02:25.694Z,8.45
2023-04-01T06:05:12.357Z,8.57
2023-04-01T06:07:40.225Z,8.73
2023-04-01T06:10:15.345Z,8.82
2023-04-01T06:12:58.296Z,9.23
2023-04-01T06:15:37.148Z,9.18
2023-04-01T06:18:18.346Z,8.65
2023-04-01T06:20:58.137Z,8.32
2023-04-01T06:23:40.255Z,8.90
2023-04-01T06:26:20.795Z,8.10
2023-04-01T06:29:16.692Z,9.25
2023-04-01T06:32:22.190Z,9.27
2023-04-01T06:35:16.687Z,8.82
2023-04-01T06:38:06.068Z,8.27
2023-04-01T06:40:50.751Z,8.00
2023-04-01T06:43:46.634Z,8.60
2023-04-01T06:47:03.753Z,7.65
2023-04-01T06:50:21.541Z,8.70
2023-04-01T06:53:21.001Z,8.10
2023-04-01T06:56:16.054Z,8.40
2023-04-01T06:59:16.687Z,7.50
2023-04-01T07:01:52.634Z,7.65
2023-04-01T07:04:32.923Z,8.02
2023-04-01T07:07:06.128Z,6.93
2023-04-01T07:09:48.337Z,7.07
2023-04-01T07:12:36.702Z,6.20
2023-04-01T07:15:44.620Z,5.97
2023-04-01T07:18:39.374Z,5.97
2023-04-01T07:21:18.174Z,5.67
2023-04-01T07:23:48.420Z,5.75
2023-04-01T07:26:36.791Z,5.63
2023-04-01T07:29:17.344Z,5.72
2023-04-01T07:32:41.140Z,4.95
2023-04-01T07:35:34.660Z,4.95
2023-04-01T07:38:35.457Z,5.00
2023-04-01T07:41:30.884Z,5.25
2023-04-01T07:44:24.645Z,4.95
2023-04-01T07:47:36.142Z,5.00
2023-04-01T07:50:13.805Z,4.78
2023-04-01T07:52:51.608Z,4.90
2023-04-01T07:55:43.102Z,4.90
2023-04-01T07:58:52.532Z,4.25
2023-04-01T08:02:01.480Z,3.88
2023-04-01T08:05:07.024Z,3.90
2023-04-01T08:07:50.380Z,3.47
2023-04-01T08:10:56.345Z,3.30
2023-04-01T08:13:54.715Z,3.83
2023-04-01T08:17:07.638Z,3.58
2023-04-01T08:19:53.356Z,3.83
2023-04-01T08:22:43.080Z,4.13
2023-04-01T08:25:28.406Z,4.00
2023-04-01T08:28:24.750Z,3.42
2023-04-01T08:33:36.749Z,3.65
2023-04-01T08:36:17.836Z,4.25
2023-04-01T08:39:14.461Z,3.58
2023-04-01T08:41:57.876Z,3.58
2023-04-01T08:45:01.280Z,4.25
2023-04-01T08:48:10.042Z,4.18
2023-04-01T08:51:01.200Z,3.80
2023-04-01T08:53:38.403Z,4.00
2023-04-01T08:56:24.572Z,3.67
2023-04-01T08:59:01.478Z,4.00
2023-04-01T09:01:35.968Z,3.55
2023-04-01T09:05:00.852Z,3.75
2023-04-01T09:07:46.915Z,3.60
2023-04-01T09:10:33.587Z,4.00
2023-04-01T09:13:20.231Z,3.15
2023-04-01T09:16:04.729Z,3.10
2023-04-01T09:19:02.181Z,2.60
2023-04-01T09:22:00.488Z,2.90
2023-04-01T09:24:43.446Z,3.10
2023-04-01T09:27:34.452Z,2.78
2023-04-01T09:30:31.765Z,2.05
2023-04-01T09:33:18.510Z,2.20
2023-04-01T09:35:57.575Z,2.00
2023-04-01T09:39:02.520Z,2.10
2023-04-01T09:41:33.322Z,1.60
2023-04-01T09:44:28.318Z,1.40
2023-04-01T09:47:37.059Z,1.27
2023-04-01T09:50:28.476Z,1.10
2023-04-01T09:53:14.354Z,1.40
2023-04-01T09:55:57.358Z,1.40
2023-04-01T09:58:56.500Z,1.52
2023-04-01T10:01:43.311Z,1.55
2023-04-01T10:04:25.458Z,1.08
2023-04-01T10:07:18.098Z,1.10
2023-04-01T10:10:17.209Z,0.88
2023-04-01T10:13:09.896Z,1.00
2023-04-01T10:15:49.841Z,0.90
2023-04-01T10:18:43.872Z,1.05
2023-04-01T10:21:48.926Z,1.13
2023-04-01T10:24:52.337Z,1.23
2023-04-01T10:27:58.196Z,1.45
2023-04-01T10:31:23.915Z,1.60
2023-04-01T10:34:22.094Z,2.20
2023-04-01T10:36:55.446Z,2.00
2023-04-01T10:40:21.291Z,1.70
2023-04-01T10:43:35.607Z,1.80
2023-04-01T10:46:27.058Z,1.60
2023-04-01T10:49:11.393Z,2.15
2023-04-01T10:51:45.017Z,2.65
2023-04-01T10:54:49.698Z,2.50
2023-04-01T10:57:48.701Z,2.70
2023-04-01T11:00:51.827Z,2.00
2023-04-01T11:04:24.226Z,2.38
2023-04-01T11:07:55.869Z,2.17
2023-04-01T11:10:53.654Z,2.45
2023-04-01T11:13:31.207Z,2.63
2023-04-01T11:15:59.291Z,3.25
2023-04-01T11:19:00.299Z,3.40
2023-04-01T11:21:43.087Z,3.30
2023-04-01T11:24:41.415Z,3.88
2023-04-01T11:27:48.692Z,3.10
2023-04-01T11:30:55.818Z,3.20
2023-04-01T11:33:46.271Z,3.13
2023-04-01T11:36:37.130Z,2.90
2023-04-01T11:39:13.657Z,2.88
2023-04-01T11:42:41.673Z,2.97
2023-04-01T11:45:42.022Z,3.15
2023-04-01T11:48:23.922Z,3.35
2023-04-01T11:51:20.758Z,3.33
2023-04-01T11:54:13.846Z,2.25
2023-04-01T11:57:04.812Z,2.55
2023-04-01T12:00:10.294Z,1.88
2023-04-01T12:03:14.535Z,2.10
2023-04-01T12:06:02.750Z,2.08
2023-04-01T12:08:47.281Z,2.40
2023-04-01T12:11:36.160Z,2.15
2023-04-01T12:14:28.739Z,2.78
2023-04-01T12:17:34.453Z,2.28
2023-04-01T12:20:27.703Z,2.20
2023-04-01T12:22:55.557Z,2.80
2023-04-01T12:25:57.459Z,2.47
2023-04-01T12:28:56.349Z,2.58
2023-04-01T12:31:37.877Z,2.63
2023-04-01T12:34:23.994Z,2.47
2023-04-01T12:37:01.947Z,2.70
2023-04-01T12:39:32.817Z,2.63
2023-04-01T12:42:37.471Z,2.90
2023-04-01T12:45:08.650Z,2.78
2023-04-01T12:47:54.815Z,2.70
2023-04-01T12:50:29.843Z,2.83
2023-04-01T12:53:16.034Z,3.55
2023-04-01T12:55:45.454Z,3.10
2023-04-01T12:58:51.723Z,2.90
2023-04-01T13:01:36.684Z,3.08
2023-04-01T13:04:46.120Z,3.50
2023-04-01T13:07:25.871Z,3.10
2023-04-01T13:10:03.982Z,3.38
2023-04-01T13:13:01.444Z,2.10
2023-04-01T13:15:36.490Z,2.10
2023-04-01T13:18:04.317Z,1.98
2023-04-01T13:20:48.388Z,2.40
2023-04-01T13:23:31.391Z,2.55
2023-04-01T13:26:37.954Z,2.92
2023-04-01T13:29:21.017Z,2.67
2023-04-01T13:32:18.647Z,3.17
2023-04-01T13:35:00.300Z,2.55
2023-04-01T13:37:53.871Z,2.95
2023-04-01T13:40:27.253Z,3.15
2023-04-01T13:43:25.596Z,3.85
2023-04-01T13:46:12.130Z,3.30
2023-04-01T13:49:08.740Z,3.13
2023-04-01T13:51:53.321Z,3.30
2023-04-01T13:54:52.439Z,3.75
2023-04-01T13:57:30.321Z,3.80
2023-04-01T14:00:55.112Z,3.72
2023-04-01T14:03:38.328Z,3.55
2023-04-01T14:06:08.341Z,3.83
2023-04-01T14:08:45.233Z,4.00
2023-04-01T14:11:35.232Z,4.03
2023-04-01T14:14:29.006Z,4.55
2023-04-01T14:17:04.578Z,4.85
2023-04-01T14:19:53.413Z,4.75
2023-04-01T14:22:32.516Z,4.65
2023-04-01T14:25:28.546Z,5.60
2023-04-01T14:28:17.360Z,4.78
2023-04-01T14:31:15.186Z,3.53
2023-04-01T14:33:43.038Z,5.40
2023-04-01T14:36:44.552Z,5.53
2023-04-01T14:39:51.168Z,5.07
2023-04-01T14:42:37.734Z,4.18
2023-04-01T14:45:17.821Z,4.38
2023-04-01T14:47:55.121Z,5.00
2023-04-01T14:50:40.693Z,4.68
2023-04-01T14:53:25.292Z,5.38
2023-04-01T14:55:56.307Z,4.10
2023-04-01T14:58:28.045Z,3.28
2023-04-01T15:01:07.752Z,4.50
2023-04-01T15:03:47.676Z,3.75
2023-04-01T15:06:24.352Z,3.50
2023-04-01T15:09:01.295Z,4.43
2023-04-01T15:11:29.184Z,2.85
2023-04-01T15:14:10.029Z,4.20
2023-04-01T15:17:03.557Z,4.50
2023-04-01T15:19:43.619Z,4.60
2023-04-01T15:22:45.335Z,4.47
2023-04-01T15:25:43.740Z,3.83
2023-04-01T15:28:23.860Z,3.67
2023-04-01T15:31:14.858Z,3.60
2023-04-01T15:33:48.638Z,2.75
2023-04-01T15:36:52.370Z,2.83
2023-04-01T15:39:41.915Z,3.80
2023-04-01T15:42:46.679Z,3.65
2023-04-01T15:45:35.920Z,4.05
2023-04-01T15:48:27.480Z,4.20
2023-04-01T15:51:19.937Z,3.63
2023-04-01T15:54:27.163Z,4.43
2023-04-01T15:57:29.308Z,3.85
2023-04-01T16:00:03.503Z,3.90
2023-04-01T16:03:03.953Z,3.40
2023-04-01T16:05:44.084Z,3.90
2023-04-01T16:08:20.938Z,3.97
2023-04-01T16:11:23.077Z,3.40
2023-04-01T16:14:18.838Z,3.78
2023-04-01T16:16:52.485Z,3.20
2023-04-01T16:19:32.405Z,3.40
2023-04-01T16:22:15.708Z,4.90
2023-04-01T16:25:01.737Z,3.53
2023-04-01T16:27:46.568Z,3.50
2023-04-01T16:30:33.203Z,4.38
2023-04-01T16:33:25.954Z,3.75
2023-04-01T16:36:20.334Z,3.45
2023-04-01T16:39:09.085Z,3.38
2023-04-01T16:42:01.842Z,4.78
2023-04-01T16:44:31.123Z,4.00
2023-04-01T16:47:09.492Z,4.90
2023-04-01T16:49:49.094Z,4.90
2023-04-01T16:52:30.579Z,4.60
2023-04-01T16:55:21.737Z,4.30
2023-04-01T16:57:58.075Z,5.22
2023-04-01T17:00:39.419Z,5.25
2023-04-01T17:03:13.059Z,4.95
2023-04-01T17:06:02.941Z,5.18
2023-04-01T17:08:36.838Z,5.20
2023-04-01T17:11:19.821Z,5.15
2023-04-01T17:14:18.667Z,5.68
2023-04-01T17:17:17.177Z,4.13
2023-04-01T17:20:03.206Z,5.35
2023-04-01T17:22:38.573Z,5.03
2023-04-01T17:25:21.821Z,4.20
2023-04-01T17:27:55.338Z,5.25
2023-04-01T17:30:34.889Z,4.60
2023-04-01T17:33:26.858Z,4.00
2023-04-01T17:36:13.570Z,4.18
2023-04-01T17:39:06.146Z,4.97
2023-04-01T17:42:07.790Z,9.70
2023-04-01T17:44:44.668Z,6.57
2023-04-01T17:47:43.002Z,7.32
2023-04-01T17:50:38.734Z,5.40
2023-04-01T17:53:30.956Z,5.03
2023-04-01T17:56:24.369Z,4.60
2023-04-01T17:59:21.146Z,4.97
2023-04-01T18:02:20.403Z,4.07
2023-04-01T18:05:13.139Z,4.05
2023-04-01T18:07:56.193Z,3.42
2023-04-01T18:10:35.246Z,3.33
2023-04-01T18:13:27.747Z,3.20
2023-04-01T18:16:02.865Z,3.72
2023-04-01T18:18:57.945Z,3.72
2023-04-01T18:21:33.832Z,3.55
2023-04-01T18:24:28.512Z,2.28
2023-04-01T18:27:44.367Z,2.83
2023-04-01T18:30:12.464Z,3.60
2023-04-01T18:32:55.764Z,2.80
2023-04-01T18:35:23.743Z,2.92
2023-04-01T18:38:00.360Z,4.80
2023-04-01T18:41:11.747Z,4.78
2023-04-01T18:44:05.840Z,2.70
2023-04-01T18:46:59.930Z,3.65
2023-04-01T18:50:12.632Z,2.92
2023-04-01T18:52:45.181Z,1.88
2023-04-01T18:55:34.849Z,4.03
2023-04-01T18:58:25.682Z,3.83
2023-04-01T19:01:15.472Z,4.30
2023-04-01T19:04:02.670Z,4.40
2023-04-01T19:06:36.100Z,3.85
2023-04-01T19:09:26.480Z,4.32
2023-04-01T19:12:22.240Z,4.70
2023-04-01T19:18:23.086Z,4.25
2023-04-01T19:21:00.838Z,4.75
2023-04-01T19:23:53.359Z,4.43
2023-04-01T19:26:24.011Z,5.70
2023-04-01T19:29:00.282Z,5.75
2023-04-01T19:31:56.661Z,4.70
2023-04-01T19:34:47.429Z,7.05
2023-04-01T19:37:41.075Z,7.78
2023-04-01T19:40:31.231Z,7.35
2023-04-01T19:43:03.539Z,6.05
2023-04-01T19:45:41.363Z,6.68
2023-04-01T19:48:19.370Z,5.57
2023-04-01T19:51:00.963Z,5.35
2023-04-01T19:53:59.484Z,6.80
2023-04-01T19:56:53.378Z,7.00
2023-04-01T19:59:34.253Z,6.25
2023-04-01T20:02:20.501Z,7.55
2023-04-01T20:04:57.377Z,8.45
2023-04-01T20:07:45.359Z,7.57
2023-04-01T20:10:35.905Z,7.05
2023-04-01T20:13:53.129Z,7.03
2023-04-01T20:16:23.578Z,7.00
2023-04-01T20:18:59.538Z,6.72
2023-04-01T20:21:45.950Z,5.57
2023-04-01T20:24:35.515Z,7.15
2023-04-01T20:27:11.513Z,7.05
2023-04-01T20:29:55.708Z,6.93
2023-04-01T20:32:44.359Z,6.78
2023-04-01T20:35:22.446Z,6.70
2023-04-01T20:38:25.347Z,6.28
2023-04-01T20:41:03.749Z,5.50
2023-04-01T20:44:25.899Z,6.70
2023-04-01T20:47:12.061Z,6.93
2023-04-01T20:50:08.086Z,5.57
2023-04-01T20:52:50.427Z,6.38
2023-04-01T20:55:56.180Z,5.53
2023-04-01T20:58:55.738Z,5.95
2023-04-01T21:01:46.103Z,7.43
2023-04-01T21:04:34.031Z,7.20
2023-04-01T21:07:29.368Z,7.47
2023-04-01T21:10:10.335Z,7.25
2023-04-01T21:13:07.485Z,7.22
2023-04-01T21:16:00.644Z,9.93
2023-04-01T21:18:49.653Z,7.47
2023-04-01T21:21:35.904Z,7.10
2023-04-01T21:24:25.560Z,7.65
2023-04-01T21:27:11.226Z,10.25
2023-04-01T21:29:44.803Z,6.88
2023-04-01T21:32:37.360Z,6.53
2023-04-01T21:35:23.555Z,7.32
2023-04-01T21:38:05.068Z,7.05
2023-04-01T21:41:04.655Z,7.78
2023-04-01T21:43:47.089Z,6.55
2023-04-01T21:46:17.802Z,7.43
2023-04-01T21:48:57.486Z,8.15
2023-04-01T21:51:34.146Z,8.10
2023-04-01T21:54:26.697Z,7.85
2023-04-01T21:57:22.335Z,8.80
2023-04-01T22:03:26.215Z,6.95
2023-04-01T22:06:25.980Z,6.07
2023-04-01T22:09:00.879Z,8.27
2023-04-01T22:11:46.095Z,8.65
2023-04-01T22:14:22.915Z,8.98
2023-04-01T22:16:58.138Z,8.35
2023-04-01T22:20:04.563Z,8.75
2023-04-01T22:22:55.309Z,7.65
2023-04-01T22:25:32.552Z,7.60
2023-04-01T22:28:07.691Z,7.90
2023-04-01T22:30:56.587Z,7.72
2023-04-01T22:33:38.311Z,8.57
2023-04-01T22:36:40.586Z,6.70
2023-04-01T22:39:32.912Z,7.43
2023-04-01T22:42:29.054Z,7.43
2023-04-01T22:45:32.270Z,6.22
2023-04-01T22:48:22.349Z,7.97
2023-04-01T22:51:05.073Z,8.27
2023-04-01T22:53:59.131Z,8.88
2023-04-01T22:56:50.899Z,7.43
2023-04-01T22:59:40.771Z,7.32
2023-04-01T23:02:19.362Z,9.63
2023-04-01T23:04:55.934Z,7.00
2023-04-01T23:07:49.938Z,7.20
2023-04-01T23:10:27.608Z,8.13
2023-04-01T23:13:00.133Z,10.38
2023-04-01T23:15:29.717Z,9.82
2023-04-01T23:18:13.815Z,10.25
2023-04-01T23:20:42.005Z,11.45
2023-04-01T23:23:18.402Z,10.25
2023-04-01T23:25:58.061Z,10.43
2023-04-01T23:28:28.949Z,10.20
2023-04-01T23:30:56.911Z,10.13
2023-04-01T23:33:30.364Z,10.70
2023-04-01T23:36:14.673Z,9.05
2023-04-01T23:38:47.811Z,11.68
2023-04-01T23:41:30.065Z,10.23
2023-04-01T23:44:09.332Z,7.15
2023-04-01T23:46:39.939Z,10.23
2023-04-01T23:49:15.068Z,9.25
2023-04-01T23:54:34.573Z,7.68
2023-04-01T23:57:11.996Z,9.27
2023-04-01T23:59:40.344Z,8.45
